Time;durP1;ratioP1;P1;durP2;ratioP2;P2;SDS_P1;SDS_P2;PMS_P1;PMS_P2;Temp;Humidity;BMP_temperature;BMP_pressure;BME280_temperature;BME280_humidity;BME280_pressure;Samples;Min_cycle;Max_cycle;Signal;HPM_P1;HPM_P2
2022/01/24 00:02:08;;;;;;;14.02;7.20;;;-4.60;99.90;;;;;;4994451;28;20765;-88
2022/01/24 00:04:38;;;;;;;15.48;7.90;;;-4.60;99.90;;;;;;5044013;28;20419;-88
2022/01/24 00:07:06;;;;;;;15.40;8.00;;;-4.60;99.90;;;;;;5027054;28;20431;-88
2022/01/24 00:09:34;;;;;;;15.75;8.23;;;-4.60;99.90;;;;;;5042009;28;20410;-88
2022/01/24 00:12:14;;;;;;;15.60;8.40;;;-4.60;99.90;;;;;;5010911;28;20482;-89
2022/01/24 00:14:59;;;;;;;16.80;8.52;;;-4.60;99.90;;;;;;5010769;28;20770;-87
2022/01/24 00:17:36;;;;;;;16.67;7.90;;;-4.60;99.90;;;;;;5043874;28;20398;-88
2022/01/24 00:28:28;;;;;;;16.27;8.02;;;-4.60;99.90;;;;;;5011737;28;20395;-88
2022/01/24 00:30:56;;;;;;;16.52;8.15;;;-4.50;99.90;;;;;;5010469;28;20474;-88
2022/01/24 00:33:24;;;;;;;15.38;8.15;;;-4.60;99.90;;;;;;5010664;28;20448;-88
2022/01/24 00:35:51;;;;;;;16.52;8.88;;;-4.60;99.90;;;;;;4994241;28;20482;-88
2022/01/24 00:38:19;;;;;;;16.80;8.68;;;-4.60;99.90;;;;;;5010803;28;20448;-88
2022/01/24 00:40:49;;;;;;;15.63;8.75;;;-4.60;99.90;;;;;;5010368;28;20438;-88
2022/01/24 00:43:51;;;;;;;16.27;8.05;;;-4.60;99.90;;;;;;5043265;27;20399;-88
2022/01/24 00:46:32;;;;;;;15.50;7.47;;;-4.60;99.90;;;;;;5011568;28;20388;-88
2022/01/24 00:57:06;;;;;;;14.98;7.93;;;-4.60;99.90;;;;;;5011410;28;20835;-87
2022/01/24 00:59:33;;;;;;;15.75;8.30;;;-4.60;99.90;;;;;;5010094;28;20412;-88
2022/01/24 01:02:02;;;;;;;16.63;8.73;;;-4.60;99.90;;;;;;5010457;28;20423;-88
2022/01/24 01:18:26;;;;;;;14.82;7.45;;;-4.50;99.90;;;;;;5010920;28;20571;-87
2022/01/24 01:21:09;;;;;;;16.17;7.93;;;-4.60;99.90;;;;;;5010277;28;20391;-87
2022/01/24 01:23:43;;;;;;;15.48;8.00;;;-4.60;99.90;;;;;;5011228;28;20391;-87
2022/01/24 01:26:29;;;;;;;15.75;7.60;;;-4.50;99.90;;;;;;5026169;28;20396;-87
2022/01/24 01:29:02;;;;;;;15.93;8.07;;;-4.50;99.90;;;;;;5026208;28;20391;-89
2022/01/24 01:55:48;;;;;;;15.95;7.72;;;-4.50;99.90;;;;;;5009437;28;20716;-88
2022/01/24 01:58:19;;;;;;;15.48;8.32;;;-4.50;99.90;;;;;;4992932;28;20419;-88
2022/01/24 02:00:58;;;;;;;15.50;7.70;;;-4.50;99.90;;;;;;5009098;28;20391;-87
2022/01/24 02:03:28;;;;;;;12.93;6.80;;;-4.50;99.90;;;;;;5006761;28;20756;-88
2022/01/24 02:05:56;;;;;;;13.90;7.30;;;-4.50;99.90;;;;;;5020234;28;20413;-88
2022/01/24 02:08:29;;;;;;;12.98;6.90;;;-4.50;99.90;;;;;;4989684;28;20821;-88
2022/01/24 02:10:58;;;;;;;14.07;7.13;;;-4.50;99.90;;;;;;5025522;28;20392;-89
2022/01/24 02:13:28;;;;;;;14.60;7.30;;;-4.50;99.90;;;;;;5009205;28;20403;-87
2022/01/24 02:16:25;;;;;;;14.68;7.20;;;-4.50;99.90;;;;;;5008869;28;20408;-88
2022/01/24 02:19:07;;;;;;;14.37;7.50;;;-4.50;99.90;;;;;;5008508;28;20862;-88
2022/01/24 02:21:58;;;;;;;14.02;7.22;;;-4.50;99.90;;;;;;5008955;28;20395;-88
2022/01/24 02:24:31;;;;;;;15.93;8.07;;;-4.50;99.90;;;;;;5009166;28;20404;-88
2022/01/24 02:27:00;;;;;;;17.90;7.97;;;-4.40;99.90;;;;;;5009041;28;20423;-88
2022/01/24 02:29:50;;;;;;;16.25;8.07;;;-4.50;99.90;;;;;;5008775;28;20399;-88
2022/01/24 02:32:18;;;;;;;14.63;7.32;;;-4.50;99.90;;;;;;5008530;28;20428;-88
2022/01/24 02:34:49;;;;;;;16.20;8.85;;;-4.50;99.90;;;;;;4992373;28;20392;-88
2022/01/24 02:37:20;;;;;;;17.20;8.93;;;-4.50;99.90;;;;;;5008989;28;20415;-89
2022/01/24 02:39:59;;;;;;;15.00;8.05;;;-4.50;99.90;;;;;;5008565;28;20396;-88
2022/01/24 02:48:24;;;;;;;19.30;9.77;;;-4.50;99.90;;;;;;5005747;28;20400;-88
2022/01/24 02:53:43;;;;;;;18.90;9.70;;;-4.40;99.90;;;;;;5008486;28;20418;-89
2022/01/24 02:56:10;;;;;;;18.40;10.18;;;-4.50;99.90;;;;;;5008321;28;20935;-88
2022/01/24 02:58:38;;;;;;;18.38;9.68;;;-4.40;99.90;;;;;;5009502;28;20462;-88
2022/01/24 03:01:07;;;;;;;19.70;10.63;;;-4.40;99.90;;;;;;5007906;28;20483;-89
2022/01/24 03:03:37;;;;;;;19.00;10.40;;;-4.40;99.90;;;;;;5001724;28;20428;-88
2022/01/24 03:06:06;;;;;;;20.17;9.90;;;-4.40;99.90;;;;;;5004586;28;20409;-89
2022/01/24 03:08:37;;;;;;;20.67;11.50;;;-4.40;99.90;;;;;;5021478;28;20413;-88
2022/01/24 03:11:04;;;;;;;22.10;10.93;;;-4.40;99.90;;;;;;4989762;28;20498;-88
2022/01/24 03:13:35;;;;;;;21.67;11.60;;;-4.40;99.90;;;;;;4999553;28;20475;-88
2022/01/24 03:16:06;;;;;;;22.30;11.20;;;-4.40;99.90;;;;;;5040929;28;20753;-87
2022/01/24 03:18:34;;;;;;;21.73;11.87;;;-4.40;99.90;;;;;;5008158;28;20435;-88
2022/01/24 03:21:03;;;;;;;21.23;11.67;;;-4.40;99.90;;;;;;5008282;28;20896;-88
2022/01/24 03:23:31;;;;;;;22.90;12.48;;;-4.40;99.90;;;;;;5041090;28;20763;-89
2022/01/24 03:25:59;;;;;;;22.00;11.77;;;-4.40;99.90;;;;;;5007893;28;20487;-88
2022/01/24 03:28:27;;;;;;;23.85;12.07;;;-4.40;99.90;;;;;;5024214;28;20507;-89
2022/01/24 03:30:55;;;;;;;21.65;11.85;;;-4.40;99.90;;;;;;5011136;28;20396;-87
2022/01/24 03:33:23;;;;;;;22.23;12.10;;;-4.40;99.90;;;;;;5011928;28;20394;-88
2022/01/24 03:35:51;;;;;;;21.58;12.63;;;-4.40;99.90;;;;;;4995305;28;20460;-88
2022/01/24 03:38:18;;;;;;;22.95;12.55;;;-4.40;99.90;;;;;;5011448;28;20407;-89
2022/01/24 03:40:46;;;;;;;22.77;11.77;;;-4.40;99.90;;;;;;5011880;28;20486;-87
2022/01/24 03:43:14;;;;;;;23.88;12.60;;;-4.40;99.90;;;;;;5044329;28;20482;-88
2022/01/24 03:45:45;;;;;;;22.58;12.50;;;-4.30;99.90;;;;;;5011259;28;20426;-86
2022/01/24 03:48:38;;;;;;;22.02;12.18;;;-4.30;99.90;;;;;;5011232;28;20478;-89
2022/01/24 03:51:06;;;;;;;24.63;12.57;;;-4.30;99.90;;;;;;5011769;28;20400;-87
2022/01/24 03:53:34;;;;;;;22.02;11.55;;;-4.30;99.90;;;;;;5011048;28;20446;-87
2022/01/24 03:56:04;;;;;;;20.90;11.20;;;-4.30;99.90;;;;;;5011337;28;20439;-87
2022/01/24 03:58:31;;;;;;;21.75;12.52;;;-4.30;99.90;;;;;;4994859;28;20395;-86
2022/01/24 04:01:01;;;;;;;24.05;12.88;;;-4.30;99.90;;;;;;5027525;28;20396;-87
2022/01/24 04:03:29;;;;;;;21.02;11.20;;;-4.30;99.90;;;;;;5027750;28;20388;-88
2022/01/24 04:05:57;;;;;;;21.40;11.90;;;-4.30;99.90;;;;;;4994712;28;20491;-88
2022/01/24 04:08:24;;;;;;;21.10;11.20;;;-4.30;99.90;;;;;;5010936;28;20520;-89
2022/01/24 04:10:55;;;;;;;21.10;10.60;;;-4.30;99.90;;;;;;5007396;28;20915;-88
2022/01/24 04:13:29;;;;;;;19.20;10.20;;;-4.30;99.90;;;;;;4995752;28;20418;-89
2022/01/24 04:19:16;;;;;;;19.80;10.57;;;-4.30;99.90;;;;;;5010922;28;20749;-88
2022/01/24 04:21:34;;;;;;;20.90;10.98;;;-4.30;99.90;;;;;;5010734;28;20799;-88
2022/01/24 04:24:07;;;;;;;20.13;10.82;;;-4.30;99.90;;;;;;5011034;28;20414;-89
2022/01/24 04:26:37;;;;;;;20.65;10.57;;;-4.20;99.90;;;;;;5027165;28;20407;-87
2022/01/24 04:29:07;;;;;;;20.33;10.65;;;-4.30;99.90;;;;;;5010561;28;20406;-89
2022/01/24 04:31:35;;;;;;;19.58;11.10;;;-4.30;99.90;;;;;;5027635;28;20417;-88
2022/01/24 04:34:03;;;;;;;18.85;10.65;;;-4.30;99.90;;;;;;5027139;28;20411;-87
2022/01/24 04:36:31;;;;;;;21.10;10.85;;;-4.30;99.90;;;;;;4994416;28;20411;-88
2022/01/24 04:38:58;;;;;;;19.43;10.57;;;-4.30;99.90;;;;;;5010384;28;20399;-87
2022/01/24 04:41:32;;;;;;;18.08;9.43;;;-4.30;99.90;;;;;;4993493;28;20391;-88
2022/01/24 04:52:43;;;;;;;19.08;9.63;;;-4.30;99.90;;;;;;5011372;28;20398;-86
2022/01/24 04:55:11;;;;;;;20.13;10.73;;;-4.30;99.90;;;;;;5026756;28;20400;-88
2022/01/24 04:57:39;;;;;;;19.95;9.77;;;-4.30;99.90;;;;;;5026803;28;20403;-88
2022/01/24 05:00:10;;;;;;;19.70;10.05;;;-4.30;99.90;;;;;;5010216;28;20896;-88
2022/01/24 05:02:37;;;;;;;18.25;9.50;;;-4.30;99.90;;;;;;5010496;28;20395;-87
2022/01/24 05:05:10;;;;;;;19.98;10.30;;;-4.30;99.90;;;;;;5009786;28;20473;-88
2022/01/24 05:07:38;;;;;;;18.45;9.75;;;-4.30;99.90;;;;;;5006725;28;20409;-87
2022/01/24 05:23:36;;;;;;;19.45;10.05;;;-4.30;99.90;;;;;;5010009;28;20494;-90
2022/01/24 05:26:06;;;;;;;18.83;9.80;;;-4.30;99.90;;;;;;5009807;28;20423;-87
2022/01/24 05:28:36;;;;;;;20.40;9.75;;;-4.30;99.90;;;;;;5009698;28;20695;-88
2022/01/24 05:31:04;;;;;;;18.23;9.45;;;-4.30;99.90;;;;;;5009769;28;20882;-87
2022/01/24 05:33:32;;;;;;;18.30;9.70;;;-4.30;99.90;;;;;;5010097;28;20398;-87
2022/01/24 05:36:00;;;;;;;19.90;10.82;;;-4.40;99.90;;;;;;5025638;28;20414;-89
2022/01/24 05:38:27;;;;;;;18.67;10.00;;;-4.30;99.90;;;;;;5009886;28;20403;-87
2022/01/24 05:41:01;;;;;;;19.50;10.07;;;-4.30;99.90;;;;;;5011060;28;20436;-88
2022/01/24 05:43:28;;;;;;;20.77;10.30;;;-4.40;99.90;;;;;;5009478;28;20474;-87
2022/01/24 05:45:56;;;;;;;19.73;10.32;;;-4.40;99.90;;;;;;5009564;28;20387;-89
2022/01/24 05:48:24;;;;;;;20.73;10.43;;;-4.40;99.90;;;;;;5009301;28;20400;-89
2022/01/24 05:50:51;;;;;;;21.30;10.77;;;-4.40;99.90;;;;;;5026064;28;20422;-88
2022/01/24 05:53:19;;;;;;;19.73;10.77;;;-4.40;99.90;;;;;;4993024;28;20811;-86
2022/01/24 05:55:47;;;;;;;21.30;10.65;;;-4.40;99.90;;;;;;5010403;28;20392;-89
2022/01/24 05:58:14;;;;;;;22.00;11.20;;;-4.40;99.90;;;;;;4993308;28;20399;-88
2022/01/24 06:00:42;;;;;;;20.95;10.80;;;-4.50;99.90;;;;;;4993070;28;20770;-87
2022/01/24 06:03:09;;;;;;;20.47;10.73;;;-4.50;99.90;;;;;;5009833;28;20490;-88
2022/01/24 06:05:37;;;;;;;19.95;10.98;;;-4.50;99.90;;;;;;5008268;28;20448;-88
2022/01/24 06:08:05;;;;;;;22.13;12.00;;;-4.50;99.90;;;;;;5008991;28;20399;-86
2022/01/24 06:10:33;;;;;;;22.75;12.00;;;-4.50;99.90;;;;;;5008994;28;20396;-86
2022/01/24 06:13:00;;;;;;;21.67;11.52;;;-4.50;99.90;;;;;;5009150;28;20490;-89
2022/01/24 06:15:28;;;;;;;24.05;12.73;;;-4.60;99.90;;;;;;5009058;28;20456;-87
2022/01/24 06:17:55;;;;;;;23.02;12.43;;;-4.60;99.90;;;;;;4992789;28;20404;-88
2022/01/24 06:20:24;;;;;;;23.17;12.55;;;-4.60;99.90;;;;;;5041539;28;20949;-88
2022/01/24 06:22:52;;;;;;;22.88;13.18;;;-4.60;99.90;;;;;;5031828;28;20395;-88
2022/01/24 06:25:23;;;;;;;25.33;13.18;;;-4.60;99.90;;;;;;5008814;28;20400;-87
2022/01/24 06:27:51;;;;;;;23.90;12.80;;;-4.60;99.90;;;;;;4989238;28;20411;-88
2022/01/24 06:30:19;;;;;;;24.02;12.77;;;-4.60;99.90;;;;;;4990187;28;20389;-88
2022/01/24 06:32:47;;;;;;;24.90;13.27;;;-4.60;99.90;;;;;;5008146;28;20422;-88
2022/01/24 06:35:15;;;;;;;23.87;12.23;;;-4.60;99.90;;;;;;5008650;28;20416;-89
2022/01/24 06:37:43;;;;;;;21.10;11.52;;;-4.60;99.90;;;;;;5008551;28;20415;-88
2022/01/24 06:40:12;;;;;;;22.67;11.85;;;-4.70;99.90;;;;;;5008538;28;20889;-88
2022/01/24 06:42:40;;;;;;;21.13;11.25;;;-4.70;99.90;;;;;;5008555;28;20388;-88
2022/01/24 06:45:09;;;;;;;22.70;11.50;;;-4.60;99.90;;;;;;5008488;28;20878;-88
2022/01/24 06:47:37;;;;;;;21.55;11.30;;;-4.70;99.90;;;;;;5008884;28;20419;-89
2022/01/24 06:50:05;;;;;;;23.55;12.73;;;-4.70;99.90;;;;;;4992381;28;20428;-88
2022/01/24 06:52:33;;;;;;;24.25;13.35;;;-4.70;99.90;;;;;;5008578;28;20865;-89
2022/01/24 06:55:01;;;;;;;24.13;12.77;;;-4.70;99.90;;;;;;4992336;28;20498;-88
2022/01/24 06:57:28;;;;;;;23.60;12.95;;;-4.70;99.90;;;;;;4988757;28;20409;-89
2022/01/24 06:59:56;;;;;;;23.83;13.15;;;-4.70;99.90;;;;;;4989796;28;20425;-88
2022/01/24 07:02:24;;;;;;;23.98;13.55;;;-4.70;99.90;;;;;;4988745;28;20953;-88
2022/01/24 07:04:51;;;;;;;23.88;12.20;;;-4.70;99.90;;;;;;5004551;28;20401;-88
2022/01/24 07:07:20;;;;;;;22.95;12.43;;;-4.70;99.90;;;;;;4990003;28;20397;-87
2022/01/24 07:09:47;;;;;;;24.58;12.45;;;-4.70;99.90;;;;;;4988730;28;20409;-88
2022/01/24 07:12:15;;;;;;;24.15;13.50;;;-4.70;99.90;;;;;;4988465;28;20492;-89
2022/01/24 07:14:44;;;;;;;23.95;12.65;;;-4.80;99.90;;;;;;5021383;28;20491;-88
2022/01/24 07:17:33;;;;;;;23.77;12.15;;;-4.90;99.90;;;;;;5004843;28;20418;-87
2022/01/24 07:20:00;;;;;;;24.55;12.80;;;-4.90;99.90;;;;;;4988369;28;20748;-88
2022/01/24 07:22:28;;;;;;;23.30;12.25;;;-4.80;99.90;;;;;;4999195;28;20391;-87
2022/01/24 07:24:56;;;;;;;25.38;13.20;;;-4.90;99.90;;;;;;5008070;28;20463;-86
2022/01/24 07:27:24;;;;;;;24.95;12.50;;;-4.90;99.90;;;;;;5007981;28;20494;-87
2022/01/24 07:29:51;;;;;;;25.50;14.05;;;-4.90;99.90;;;;;;4991847;28;20754;-87
2022/01/24 07:32:19;;;;;;;22.55;12.43;;;-4.90;99.90;;;;;;4991666;28;20403;-87
2022/01/24 07:34:47;;;;;;;25.10;13.35;;;-4.80;99.90;;;;;;4991112;28;20419;-87
2022/01/24 07:37:14;;;;;;;24.45;13.20;;;-4.90;99.90;;;;;;5008845;28;20411;-88
2022/01/24 07:39:42;;;;;;;24.45;13.52;;;-4.90;99.90;;;;;;5008988;28;20401;-87
2022/01/24 07:42:18;;;;;;;27.20;14.98;;;-4.90;99.90;;;;;;5004171;28;20492;-87
2022/01/24 07:44:45;;;;;;;26.08;13.50;;;-4.90;99.90;;;;;;5008458;28;20406;-87
2022/01/24 07:47:13;;;;;;;26.58;14.43;;;-4.90;99.90;;;;;;5007705;28;20398;-88
2022/01/24 07:49:41;;;;;;;26.30;13.80;;;-4.90;99.90;;;;;;4991614;28;20449;-87
2022/01/24 07:52:08;;;;;;;25.02;13.30;;;-4.90;99.90;;;;;;4991470;28;20398;-87
2022/01/24 07:54:36;;;;;;;25.77;13.35;;;-4.90;99.90;;;;;;5007701;28;20395;-88
2022/01/24 07:57:04;;;;;;;24.48;13.38;;;-4.90;99.90;;;;;;5007491;28;20735;-87
2022/01/24 07:59:32;;;;;;;24.63;13.63;;;-4.90;99.90;;;;;;5007865;28;20804;-87
2022/01/24 08:02:00;;;;;;;24.98;13.30;;;-4.90;99.90;;;;;;5007746;28;20802;-88
2022/01/24 08:04:27;;;;;;;25.23;13.25;;;-4.80;99.90;;;;;;5005661;28;20497;-87
2022/01/24 08:06:55;;;;;;;27.38;14.82;;;-4.80;99.90;;;;;;5008433;28;20396;-88
2022/01/24 08:09:23;;;;;;;27.70;14.30;;;-4.80;99.90;;;;;;5055541;28;20915;-89
2022/01/24 08:11:50;;;;;;;25.52;13.50;;;-4.80;99.90;;;;;;5069331;28;20482;-87
2022/01/24 08:14:20;;;;;;;24.73;13.48;;;-4.80;99.90;;;;;;5011173;28;20416;-86
2022/01/24 08:16:47;;;;;;;26.92;14.65;;;-4.80;99.90;;;;;;4992959;28;20414;-87
2022/01/24 08:19:15;;;;;;;27.50;14.37;;;-4.80;99.90;;;;;;5010191;28;20415;-86
2022/01/24 08:21:43;;;;;;;27.25;15.40;;;-4.80;99.90;;;;;;4994499;28;20431;-89
2022/01/24 08:24:11;;;;;;;27.52;14.98;;;-4.80;99.90;;;;;;5010638;28;20394;-87
2022/01/24 08:26:39;;;;;;;25.05;13.32;;;-4.70;99.90;;;;;;4994789;28;20400;-87
2022/01/24 08:29:07;;;;;;;25.88;13.30;;;-4.70;99.90;;;;;;5042599;28;20419;-88
2022/01/24 08:31:36;;;;;;;23.80;12.73;;;-4.70;99.90;;;;;;4994486;28;20889;-88
2022/01/24 08:34:04;;;;;;;26.60;13.90;;;-4.70;99.90;;;;;;5010688;28;20441;-88
2022/01/24 08:36:33;;;;;;;25.20;13.52;;;-4.70;99.90;;;;;;5010622;28;20411;-89
2022/01/24 08:39:08;;;;;;;25.13;13.38;;;-4.70;99.90;;;;;;5010807;28;20418;-87
2022/01/24 08:42:08;;;;;;;24.63;13.57;;;-4.60;99.90;;;;;;4993710;28;20494;-89
2022/01/24 08:47:02;;;;;;;25.15;14.02;;;-4.60;99.90;;;;;;5010391;28;20916;-89
2022/01/24 08:49:30;;;;;;;25.17;13.40;;;-4.60;99.90;;;;;;5014540;28;20460;-88
2022/01/24 08:51:59;;;;;;;25.70;13.40;;;-4.60;99.90;;;;;;5010821;28;20831;-86
2022/01/24 08:54:33;;;;;;;24.73;13.18;;;-4.60;99.90;;;;;;5011685;28;20391;-87
2022/01/24 08:57:02;;;;;;;25.63;13.30;;;-4.60;99.90;;;;;;5010505;28;20889;-87
2022/01/24 08:59:33;;;;;;;26.73;13.57;;;-4.60;99.90;;;;;;5011100;28;20770;-87
2022/01/24 09:02:01;;;;;;;25.33;13.55;;;-4.60;99.90;;;;;;5007311;28;20421;-88
2022/01/24 09:04:30;;;;;;;25.10;13.30;;;-4.50;99.90;;;;;;5011820;28;20432;-88
2022/01/24 09:07:04;;;;;;;24.85;13.43;;;-4.60;99.90;;;;;;5012521;28;20407;-88
2022/01/24 09:09:34;;;;;;;26.50;13.52;;;-4.50;99.90;;;;;;5013450;28;20400;-88
2022/01/24 09:12:05;;;;;;;24.38;12.30;;;-4.50;99.90;;;;;;5012131;28;20448;-87
2022/01/24 09:14:32;;;;;;;23.52;12.73;;;-4.50;99.90;;;;;;5020572;28;20393;-88
2022/01/24 09:17:00;;;;;;;25.67;13.27;;;-4.50;99.90;;;;;;5014097;28;20433;-87
2022/01/24 09:19:28;;;;;;;25.80;13.32;;;-4.50;99.90;;;;;;5012844;28;20392;-88
2022/01/24 09:21:56;;;;;;;27.13;13.60;;;-4.40;99.90;;;;;;4995188;28;20400;-89
2022/01/24 09:24:23;;;;;;;27.30;14.05;;;-4.40;99.90;;;;;;5009285;28;20405;-86
2022/01/24 09:26:51;;;;;;;26.80;13.95;;;-4.40;99.90;;;;;;5028165;28;20738;-87
2022/01/24 09:29:19;;;;;;;24.10;13.03;;;-4.30;99.90;;;;;;4992788;28;20401;-85
2022/01/24 09:31:47;;;;;;;26.55;13.38;;;-4.30;99.90;;;;;;5025137;28;20415;-82
2022/01/24 09:34:15;;;;;;;26.92;13.80;;;-4.30;99.90;;;;;;5006286;28;20911;-87
2022/01/24 09:36:42;;;;;;;24.53;13.67;;;-4.30;99.90;;;;;;5010155;28;20390;-89
2022/01/24 09:39:12;;;;;;;24.15;12.90;;;-4.20;99.90;;;;;;4995022;28;20453;-89
2022/01/24 09:41:40;;;;;;;27.50;13.65;;;-4.20;99.90;;;;;;5010710;28;20468;-87
2022/01/24 09:44:28;;;;;;;25.20;13.93;;;-4.20;99.90;;;;;;5009997;28;20921;-86
2022/01/24 09:46:56;;;;;;;25.60;13.73;;;-4.20;99.90;;;;;;4993380;28;20462;-87
2022/01/24 09:49:24;;;;;;;25.00;13.73;;;-4.20;99.90;;;;;;5010571;28;20407;-87
2022/01/24 09:51:51;;;;;;;25.80;14.13;;;-4.10;99.90;;;;;;5043665;28;20394;-84
2022/01/24 09:54:19;;;;;;;25.52;13.80;;;-4.20;99.90;;;;;;5113622;28;20448;-88
2022/01/24 09:56:47;;;;;;;24.33;13.18;;;-4.10;99.90;;;;;;5065575;28;20494;-89
2022/01/24 09:59:15;;;;;;;27.08;13.23;;;-4.00;99.90;;;;;;5010389;28;20743;-90
2022/01/24 10:01:42;;;;;;;26.17;13.80;;;-4.00;99.90;;;;;;4995389;28;20421;-89
2022/01/24 10:04:17;;;;;;;26.02;13.90;;;-4.00;99.90;;;;;;5009666;28;20411;-90
2022/01/24 10:07:13;;;;;;;27.50;13.97;;;-4.00;99.90;;;;;;5009870;28;20407;-90
2022/01/24 10:09:48;;;;;;;27.17;14.52;;;-4.00;99.90;;;;;;5010329;28;20407;-88
2022/01/24 10:18:02;;;;;;;26.20;14.10;;;-4.00;99.90;;;;;;5009461;28;20418;-88
2022/01/24 10:20:37;;;;;;;26.77;14.40;;;-4.00;99.90;;;;;;5025594;28;20395;-88
2022/01/24 10:23:17;;;;;;;26.55;14.05;;;-4.00;99.90;;;;;;5009390;28;20427;-88
2022/01/24 10:26:04;;;;;;;28.02;14.65;;;-4.00;99.90;;;;;;5009327;28;20454;-88
2022/01/24 10:28:36;;;;;;;27.10;15.53;;;-4.00;99.90;;;;;;5009353;28;20407;-88
2022/01/24 10:31:31;;;;;;;26.60;14.27;;;-4.00;99.90;;;;;;5008750;28;20948;-87
2022/01/24 10:34:11;;;;;;;27.45;15.15;;;-4.00;99.90;;;;;;4990778;28;20419;-87
2022/01/24 10:36:47;;;;;;;27.90;14.48;;;-4.00;99.90;;;;;;4992620;28;20408;-88
2022/01/24 10:39:32;;;;;;;28.02;15.02;;;-4.00;99.90;;;;;;4978908;28;20411;-90
2022/01/24 10:44:53;;;;;;;28.30;14.82;;;-4.00;99.90;;;;;;5041418;28;20507;-89
2022/01/24 10:47:29;;;;;;;29.13;15.77;;;-4.00;99.90;;;;;;5008799;28;20411;-90
2022/01/24 10:50:00;;;;;;;30.77;15.97;;;-4.00;99.90;;;;;;5008430;28;20411;-88
2022/01/24 10:52:31;;;;;;;28.05;15.55;;;-4.00;99.90;;;;;;5008549;28;20407;-89
2022/01/24 10:55:11;;;;;;;29.47;15.83;;;-4.00;99.90;;;;;;5008444;28;20407;-89
2022/01/24 10:57:40;;;;;;;29.10;15.60;;;-4.00;99.90;;;;;;4992138;28;20488;-88
2022/01/24 11:00:17;;;;;;;30.67;16.10;;;-4.00;99.90;;;;;;4991606;28;20411;-89
2022/01/24 11:02:48;;;;;;;28.90;16.23;;;-3.90;99.90;;;;;;5007952;28;20448;-88
2022/01/24 11:05:25;;;;;;;28.48;15.20;;;-4.00;99.90;;;;;;5008943;28;20497;-88
2022/01/24 11:08:09;;;;;;;29.23;15.98;;;-4.00;99.90;;;;;;5024044;28;22027;-88
2022/01/24 11:10:50;;;;;;;28.70;15.13;;;-3.90;99.90;;;;;;5007211;28;20495;-89
2022/01/24 11:13:25;;;;;;;28.75;15.82;;;-3.90;99.90;;;;;;5007618;28;20452;-88
2022/01/24 11:15:56;;;;;;;27.13;14.95;;;-3.90;99.90;;;;;;5023619;28;20769;-88
2022/01/24 11:18:31;;;;;;;29.45;15.43;;;-3.90;99.90;;;;;;5008001;28;20411;-89
2022/01/24 11:21:11;;;;;;;30.50;15.68;;;-3.90;99.90;;;;;;4991944;28;20404;-89
2022/01/24 11:23:40;;;;;;;29.60;15.13;;;-3.80;99.90;;;;;;5008456;28;20407;-89
2022/01/24 11:26:11;;;;;;;28.92;15.77;;;-3.80;99.90;;;;;;4990836;28;20407;-88
2022/01/24 11:28:39;;;;;;;29.48;14.65;;;-3.90;99.90;;;;;;5008260;28;20403;-86
2022/01/24 11:31:19;;;;;;;30.45;16.13;;;-3.80;99.90;;;;;;5006552;28;20438;-89
2022/01/24 11:34:30;;;;;;;32.33;17.17;;;-3.80;99.90;;;;;;5006291;28;20502;-88
2022/01/24 11:36:59;;;;;;;36.80;21.10;;;-3.80;99.90;;;;;;4976240;28;20937;-87
2022/01/24 11:39:26;;;;;;;32.30;19.63;;;-3.80;99.90;;;;;;5009165;28;20464;-89
2022/01/24 11:41:55;;;;;;;29.52;16.25;;;-3.70;99.90;;;;;;5008155;28;20486;-89
2022/01/24 11:44:25;;;;;;;32.13;17.90;;;-3.70;99.90;;;;;;4991949;28;21012;-88
2022/01/24 11:46:56;;;;;;;30.98;17.65;;;-3.70;99.90;;;;;;5007860;28;20564;-86
2022/01/24 11:49:32;;;;;;;30.50;16.48;;;-3.70;99.90;;;;;;5007968;28;20406;-87
2022/01/24 11:52:16;;;;;;;36.17;20.40;;;-3.70;99.90;;;;;;4994871;28;20870;-89
2022/01/24 11:54:52;;;;;;;31.85;17.17;;;-3.70;99.90;;;;;;5012120;28;20399;-86
2022/01/24 11:57:27;;;;;;;33.47;19.05;;;-3.60;99.90;;;;;;5011120;28;20942;-85
2022/01/24 12:00:04;;;;;;;29.70;16.00;;;-3.60;99.90;;;;;;5012903;28;20421;-90
2022/01/24 12:02:49;;;;;;;30.75;15.90;;;-3.60;99.90;;;;;;5011112;28;20748;-88
2022/01/24 12:05:18;;;;;;;29.17;16.15;;;-3.60;99.90;;;;;;5011057;28;20395;-88
2022/01/24 12:07:47;;;;;;;28.67;15.57;;;-3.60;99.90;;;;;;5012198;28;20399;-88
2022/01/24 12:10:27;;;;;;;31.33;16.70;;;-3.60;99.90;;;;;;5010873;28;20472;-88
2022/01/24 12:13:01;;;;;;;31.60;16.67;;;-3.50;99.90;;;;;;4991810;28;20404;-88
2022/01/24 12:15:38;;;;;;;27.70;14.27;;;-3.60;99.90;;;;;;5024004;28;20495;-88
2022/01/24 12:18:27;;;;;;;29.10;15.07;;;-3.50;99.90;;;;;;5028395;28;20437;-88
2022/01/24 12:20:57;;;;;;;28.92;15.10;;;-3.50;99.90;;;;;;5010854;28;20403;-87
2022/01/24 12:23:30;;;;;;;29.35;15.13;;;-3.50;99.90;;;;;;4994568;28;20502;-89
2022/01/24 12:26:09;;;;;;;28.00;15.35;;;-3.50;99.90;;;;;;5010649;28;20391;-88
2022/01/24 12:28:42;;;;;;;27.85;14.40;;;-3.50;99.90;;;;;;5010586;28;20501;-89
2022/01/24 12:31:36;;;;;;;31.85;16.38;;;-3.50;99.90;;;;;;5010771;28;20402;-88
2022/01/24 12:34:31;;;;;;;29.05;15.85;;;-3.50;99.90;;;;;;4990985;28;20393;-87
2022/01/24 12:37:21;;;;;;;28.70;14.40;;;-3.50;99.90;;;;;;4989771;28;20405;-88
2022/01/24 12:40:00;;;;;;;31.63;16.48;;;-3.50;99.90;;;;;;4990740;28;20987;-89
2022/01/24 12:42:42;;;;;;;29.27;14.93;;;-3.50;99.90;;;;;;4990945;28;20450;-87
2022/01/24 12:48:18;;;;;;;27.40;14.27;;;-3.50;99.90;;;;;;4991963;28;20403;-88
2022/01/24 12:50:52;;;;;;;28.10;14.57;;;-3.50;99.90;;;;;;4991981;28;20389;-88
2022/01/24 12:53:20;;;;;;;29.05;14.57;;;-3.50;99.90;;;;;;4991896;28;20407;-88
2022/01/24 12:56:04;;;;;;;28.85;15.07;;;-3.50;99.90;;;;;;4974703;28;20449;-89
2022/01/24 12:58:40;;;;;;;29.40;15.68;;;-3.40;99.90;;;;;;4997363;28;20408;-87
2022/01/24 13:01:18;;;;;;;29.55;15.18;;;-3.50;99.90;;;;;;4994000;28;20465;-89
2022/01/24 13:03:50;;;;;;;28.10;14.85;;;-3.40;99.90;;;;;;5010181;28;20941;-87
2022/01/24 13:06:19;;;;;;;30.50;15.88;;;-3.40;99.90;;;;;;5010932;28;20391;-88
2022/01/24 13:08:56;;;;;;;29.48;14.52;;;-3.40;99.90;;;;;;5026553;28;20876;-88
2022/01/24 13:11:27;;;;;;;30.42;15.52;;;-3.40;99.90;;;;;;5010468;28;20564;-88
2022/01/24 13:14:12;;;;;;;29.00;15.32;;;-3.40;99.90;;;;;;5010114;28;20413;-90
2022/01/24 13:22:39;;;;;;;30.73;15.52;;;-3.40;99.90;;;;;;5009764;28;20449;-86
2022/01/24 13:25:26;;;;;;;30.83;16.53;;;-3.40;99.90;;;;;;5009951;28;20403;-87
2022/01/24 13:27:57;;;;;;;31.70;15.88;;;-3.40;99.90;;;;;;4993248;28;20917;-87
2022/01/24 13:30:33;;;;;;;31.37;15.63;;;-3.40;99.90;;;;;;4988845;28;20404;-86
2022/01/24 13:33:03;;;;;;;30.30;15.93;;;-3.40;99.90;;;;;;5009714;28;20483;-88
2022/01/24 13:35:33;;;;;;;30.60;16.73;;;-3.40;99.90;;;;;;5009890;28;20387;-87
2022/01/24 13:38:12;;;;;;;30.05;15.70;;;-3.40;99.90;;;;;;5005268;28;20421;-89
2022/01/24 13:41:01;;;;;;;31.83;16.40;;;-3.40;99.90;;;;;;5005462;28;20399;-87
2022/01/24 13:43:45;;;;;;;33.03;17.55;;;-3.40;99.90;;;;;;5009614;28;20497;-89
2022/01/24 13:46:26;;;;;;;34.47;20.23;;;-3.40;99.90;;;;;;5010945;28;20495;-88
2022/01/24 13:48:58;;;;;;;33.33;17.30;;;-3.40;99.90;;;;;;5009656;28;20475;-87
2022/01/24 13:51:39;;;;;;;32.67;16.93;;;-3.40;99.90;;;;;;5011370;28;20391;-88
2022/01/24 13:54:21;;;;;;;32.33;17.30;;;-3.40;99.90;;;;;;5009186;28;20452;-88
2022/01/24 13:56:55;;;;;;;31.45;16.77;;;-3.40;99.90;;;;;;5010413;28;20877;-87
2022/01/24 13:59:29;;;;;;;30.63;16.97;;;-3.40;99.90;;;;;;5010765;28;20852;-87
2022/01/24 14:02:04;;;;;;;34.85;17.65;;;-3.40;99.90;;;;;;5010333;28;20735;-88
2022/01/24 14:04:35;;;;;;;33.22;17.35;;;-3.40;99.90;;;;;;5010380;28;20425;-87
2022/01/24 14:07:09;;;;;;;33.38;17.38;;;-3.40;99.90;;;;;;5009953;28;20427;-87
2022/01/24 14:09:45;;;;;;;34.08;18.10;;;-3.40;99.90;;;;;;5009677;28;20412;-87
2022/01/24 14:12:17;;;;;;;32.17;17.37;;;-3.40;99.90;;;;;;5001116;28;20765;-87
2022/01/24 14:14:57;;;;;;;33.75;17.88;;;-3.40;99.90;;;;;;5008280;28;20411;-88
2022/01/24 14:19:57;;;;;;;34.00;17.73;;;-3.30;99.90;;;;;;5010294;28;20480;-87
2022/01/24 14:22:38;;;;;;;30.23;16.13;;;-3.30;99.90;;;;;;5008612;28;20414;-89
2022/01/24 14:25:10;;;;;;;31.67;16.80;;;-3.30;99.90;;;;;;5080765;28;20749;-87
2022/01/24 14:27:42;;;;;;;31.60;16.83;;;-3.30;99.90;;;;;;5112886;28;20424;-88
2022/01/24 14:30:40;;;;;;;32.17;17.63;;;-3.30;99.90;;;;;;5055270;28;20474;-88
2022/01/24 14:33:11;;;;;;;31.17;16.75;;;-3.30;99.90;;;;;;5008750;28;20490;-88
2022/01/24 14:35:48;;;;;;;33.53;18.15;;;-3.40;99.90;;;;;;5010121;28;20388;-88
2022/01/24 14:38:37;;;;;;;31.40;16.60;;;-3.40;99.90;;;;;;4992204;28;20411;-87
2022/01/24 14:41:18;;;;;;;32.85;17.73;;;-3.30;99.90;;;;;;5008484;28;20481;-88
2022/01/24 14:46:36;;;;;;;33.25;18.40;;;-3.40;99.90;;;;;;5008571;28;20474;-89
2022/01/24 14:49:16;;;;;;;35.53;19.88;;;-3.40;99.90;;;;;;5008385;28;20492;-87